Time;durP1;ratioP1;P1;durP2;ratioP2;P2;SDS_P1;SDS_P2;PMS_P1;PMS_P2;Temp;Humidity;BMP_temperature;BMP_pressure;BME280_temperature;BME280_humidity;BME280_pressure;Samples;Min_cycle;Max_cycle;Signal;HPM_P1;HPM_P2
2022/05/24 00:01:08;;;;;;;9.50;2.85;;;17.30;99.90;;;;;;5030116;28;20037;-67
2022/05/24 00:03:36;;;;;;;9.18;3.10;;;17.30;99.90;;;;;;5032052;28;20111;-67
2022/05/24 00:06:04;;;;;;;8.48;3.28;;;17.30;99.90;;;;;;5032432;28;20051;-67
2022/05/24 00:08:32;;;;;;;9.25;3.33;;;17.30;99.90;;;;;;5029578;28;20048;-68
2022/05/24 00:11:00;;;;;;;9.93;2.78;;;17.30;99.90;;;;;;5032897;28;20528;-66
2022/05/24 00:13:28;;;;;;;10.07;3.42;;;17.30;99.90;;;;;;5034086;28;20112;-68
2022/05/24 00:15:55;;;;;;;8.07;2.90;;;17.30;99.90;;;;;;5036675;28;20509;-67
2022/05/24 00:18:28;;;;;;;9.27;3.40;;;17.40;99.90;;;;;;5033312;28;20049;-67
2022/05/24 00:20:59;;;;;;;7.47;2.85;;;17.40;99.90;;;;;;5029618;28;20543;-66
2022/05/24 00:23:28;;;;;;;8.38;2.85;;;17.40;99.90;;;;;;5032553;28;20096;-67
2022/05/24 00:25:59;;;;;;;6.00;2.92;;;17.40;99.90;;;;;;5037673;28;20045;-68
2022/05/24 00:28:30;;;;;;;5.60;2.70;;;17.30;99.90;;;;;;5026236;28;20053;-67
2022/05/24 00:30:58;;;;;;;7.10;2.72;;;17.30;99.90;;;;;;5038630;28;20390;-68
2022/05/24 00:33:26;;;;;;;10.77;3.00;;;17.30;99.90;;;;;;5032014;28;20568;-67
2022/05/24 00:35:55;;;;;;;9.02;2.95;;;17.30;99.90;;;;;;5036342;28;20586;-66
2022/05/24 00:38:36;;;;;;;6.15;3.05;;;17.30;99.90;;;;;;5031607;28;20049;-66
2022/05/24 00:41:44;;;;;;;7.85;3.10;;;17.20;99.90;;;;;;5029440;28;20112;-66
2022/05/24 00:44:30;;;;;;;8.90;2.67;;;17.20;99.90;;;;;;4995801;28;20046;-67
2022/05/24 00:47:03;;;;;;;8.25;3.22;;;17.20;99.90;;;;;;4998799;28;20080;-67
2022/05/24 00:49:40;;;;;;;7.55;3.33;;;17.20;99.90;;;;;;4994479;28;20128;-66
2022/05/24 00:52:20;;;;;;;6.93;3.13;;;17.20;99.90;;;;;;4990802;28;20132;-67
2022/05/24 00:54:50;;;;;;;;;;;17.30;99.90;;;;;;4990580;28;20042;-66
2022/05/24 00:57:29;;;;;;;7.53;3.30;;;17.30;99.90;;;;;;4990897;28;19979;-67
2022/05/24 01:00:02;;;;;;;8.68;3.20;;;17.30;99.90;;;;;;4989397;28;20050;-66
2022/05/24 01:02:30;;;;;;;7.05;3.05;;;17.30;99.90;;;;;;4987171;28;20042;-66
2022/05/24 01:04:58;;;;;;;8.23;3.10;;;17.30;99.90;;;;;;4984295;28;20117;-67
2022/05/24 01:07:25;;;;;;;9.10;2.72;;;17.30;99.90;;;;;;4985058;28;20220;-66
2022/05/24 01:09:55;;;;;;;10.02;3.35;;;17.30;99.90;;;;;;4983582;28;20129;-66
2022/05/24 01:12:27;;;;;;;6.93;3.10;;;17.30;99.90;;;;;;4999124;28;20525;-66
2022/05/24 01:14:58;;;;;;;8.45;3.78;;;17.30;99.90;;;;;;4990172;28;20141;-66
2022/05/24 01:17:25;;;;;;;6.40;3.22;;;17.30;99.90;;;;;;5003114;28;20124;-66
2022/05/24 01:19:52;;;;;;;11.40;3.75;;;17.30;99.90;;;;;;5027973;28;20068;-66
2022/05/24 01:22:55;;;;;;;8.95;3.20;;;17.30;99.90;;;;;;5026368;28;20499;-67
2022/05/24 01:25:47;;;;;;;6.95;3.83;;;17.40;99.90;;;;;;5023337;28;20132;-67
2022/05/24 01:28:28;;;;;;;8.60;3.10;;;17.40;99.90;;;;;;5027216;28;20060;-67
2022/05/24 01:30:56;;;;;;;10.25;3.45;;;17.40;99.90;;;;;;5027812;28;20520;-67
2022/05/24 01:36:11;;;;;;;8.27;3.50;;;17.40;99.90;;;;;;5027522;28;20099;-67
2022/05/24 01:39:08;;;;;;;6.75;3.60;;;17.40;99.90;;;;;;5027135;28;20080;-67
2022/05/24 01:41:44;;;;;;;6.30;3.35;;;17.40;99.90;;;;;;5034901;28;20127;-67
2022/05/24 01:44:15;;;;;;;6.50;3.67;;;17.50;99.90;;;;;;5032314;28;20041;-67
2022/05/24 01:46:45;;;;;;;8.20;3.85;;;17.40;99.90;;;;;;5021661;28;20658;-67
2022/05/24 01:49:24;;;;;;;;;;;17.40;99.90;;;;;;5036457;28;20060;-67
2022/05/24 01:52:04;;;;;;;8.48;3.90;;;17.40;99.90;;;;;;5029149;28;20521;-67
2022/05/24 01:54:35;;;;;;;9.00;4.22;;;17.40;99.90;;;;;;5029991;28;20072;-67
2022/05/24 01:57:09;;;;;;;8.07;3.95;;;17.40;99.90;;;;;;5029130;28;20125;-67
2022/05/24 01:59:39;;;;;;;8.45;3.95;;;17.40;99.90;;;;;;5034945;28;20446;-67
2022/05/24 02:02:07;;;;;;;6.72;4.07;;;17.30;99.90;;;;;;5034733;28;20558;-67
2022/05/24 02:04:34;;;;;;;8.60;3.85;;;17.30;99.90;;;;;;5023618;28;20451;-67
2022/05/24 02:07:12;;;;;;;7.10;3.53;;;17.30;99.90;;;;;;5027585;28;20080;-67
2022/05/24 02:09:43;;;;;;;8.15;3.63;;;17.30;99.90;;;;;;5026357;28;20045;-67
2022/05/24 02:12:34;;;;;;;10.82;3.63;;;17.20;99.90;;;;;;5029609;28;20052;-67
2022/05/24 02:15:11;;;;;;;7.68;3.95;;;17.20;99.90;;;;;;5037173;28;20065;-67
2022/05/24 02:18:03;;;;;;;11.32;4.07;;;17.20;99.90;;;;;;5033858;28;20037;-67
2022/05/24 02:20:37;;;;;;;10.32;4.90;;;17.20;99.90;;;;;;5039968;28;20553;-68
2022/05/24 02:23:08;;;;;;;9.52;4.97;;;17.10;99.90;;;;;;5035988;28;20049;-67
2022/05/24 02:25:47;;;;;;;11.52;5.43;;;16.90;99.90;;;;;;5039277;28;20140;-66
2022/05/24 02:28:16;;;;;;;12.07;4.97;;;16.80;99.90;;;;;;5035105;28;20052;-66
2022/05/24 02:30:51;;;;;;;8.88;4.68;;;16.60;99.90;;;;;;5039372;28;20098;-66
2022/05/24 02:33:20;;;;;;;8.52;4.88;;;16.50;99.90;;;;;;5037091;28;20113;-66
2022/05/24 02:35:47;;;;;;;10.95;5.28;;;16.30;99.90;;;;;;5033500;28;20041;-66
2022/05/24 02:38:15;;;;;;;8.70;4.50;;;16.20;99.90;;;;;;5036743;28;20043;-65
2022/05/24 02:43:32;;;;;;;6.47;4.30;;;16.10;99.90;;;;;;5034670;28;20042;-66
2022/05/24 02:45:59;;;;;;;5.88;3.47;;;16.00;99.90;;;;;;5033728;28;20045;-65
2022/05/24 02:48:28;;;;;;;7.18;3.88;;;16.00;99.90;;;;;;5039502;28;20057;-64
2022/05/24 02:50:55;;;;;;;7.53;4.15;;;16.00;99.90;;;;;;5042354;28;20045;-65
2022/05/24 02:53:24;;;;;;;9.77;4.10;;;16.00;99.90;;;;;;5030339;28;20041;-66
2022/05/24 02:55:51;;;;;;;7.13;4.10;;;15.90;99.90;;;;;;5020000;28;20425;-66
2022/05/24 02:58:18;;;;;;;6.85;3.40;;;15.90;99.90;;;;;;5031962;28;20091;-66
2022/05/24 03:00:46;;;;;;;6.82;3.33;;;15.90;99.90;;;;;;5039602;28;20072;-65
2022/05/24 03:03:13;;;;;;;6.38;3.78;;;15.90;99.90;;;;;;5023026;28;20129;-66
2022/05/24 03:05:40;;;;;;;6.80;3.60;;;15.90;99.90;;;;;;5039105;28;20443;-67
2022/05/24 03:10:56;;;;;;;7.07;3.05;;;15.90;99.90;;;;;;5043657;28;20384;-66
2022/05/24 03:16:11;;;;;;;7.30;3.53;;;15.90;99.90;;;;;;5022016;28;20065;-65
2022/05/24 03:18:40;;;;;;;5.78;3.40;;;15.90;99.90;;;;;;5029646;28;20045;-66
2022/05/24 03:21:08;;;;;;;9.82;4.00;;;15.90;99.90;;;;;;5027333;28;20526;-66
2022/05/24 03:23:36;;;;;;;6.82;3.13;;;15.90;99.90;;;;;;5030877;28;20185;-66
2022/05/24 03:26:04;;;;;;;6.90;3.80;;;15.90;99.90;;;;;;5038364;28;20128;-66
2022/05/24 03:28:32;;;;;;;7.35;3.67;;;15.90;99.90;;;;;;5026157;28;20700;-65
2022/05/24 03:31:04;;;;;;;6.80;3.60;;;15.90;99.90;;;;;;5035026;28;20254;-65
2022/05/24 03:33:31;;;;;;;9.85;4.90;;;15.90;99.90;;;;;;5038596;28;20137;-65
2022/05/24 03:35:59;;;;;;;6.57;3.92;;;15.90;99.90;;;;;;5025578;28;20044;-66
2022/05/24 03:38:28;;;;;;;7.10;3.50;;;15.90;99.90;;;;;;5026345;28;20144;-65
2022/05/24 03:40:56;;;;;;;5.40;3.20;;;16.00;99.90;;;;;;5030830;28;20041;-65
2022/05/24 03:43:25;;;;;;;6.93;3.50;;;16.00;99.90;;;;;;5030588;28;20038;-66
2022/05/24 03:46:04;;;;;;;5.00;2.88;;;16.00;99.90;;;;;;5030463;28;20100;-66
2022/05/24 03:48:32;;;;;;;10.27;3.45;;;16.00;99.90;;;;;;5020681;28;20051;-67
2022/05/24 03:51:00;;;;;;;4.63;2.85;;;16.00;99.90;;;;;;5039907;28;20119;-66
2022/05/24 03:53:27;;;;;;;7.32;3.20;;;16.00;99.90;;;;;;5029312;28;20042;-65
2022/05/24 03:55:55;;;;;;;6.03;2.80;;;16.00;99.90;;;;;;5030120;28;20033;-66
2022/05/24 03:58:23;;;;;;;6.30;3.35;;;16.00;99.90;;;;;;5039740;28;20044;-66
2022/05/24 04:00:50;;;;;;;5.32;3.00;;;16.10;99.90;;;;;;5044326;28;20144;-66
2022/05/24 04:03:18;;;;;;;6.00;3.20;;;16.10;99.90;;;;;;5030273;28;20045;-65
2022/05/24 04:05:48;;;;;;;7.65;3.72;;;16.10;99.90;;;;;;5043856;28;20049;-66
2022/05/24 04:08:17;;;;;;;4.93;2.90;;;16.20;99.90;;;;;;5028087;28;20146;-66
2022/05/24 04:10:45;;;;;;;6.43;3.60;;;16.10;99.90;;;;;;5030657;28;20493;-65
2022/05/24 04:13:12;;;;;;;6.40;3.70;;;16.20;99.90;;;;;;5038332;28;20085;-66
2022/05/24 04:15:40;;;;;;;6.38;3.10;;;16.20;99.90;;;;;;5037174;28;20045;-66
2022/05/24 04:18:08;;;;;;;8.52;3.70;;;16.30;99.90;;;;;;5030582;28;20468;-66
2022/05/24 04:20:35;;;;;;;7.43;3.28;;;16.30;99.90;;;;;;5020550;28;20048;-66
2022/05/24 04:23:03;;;;;;;6.63;3.75;;;16.30;99.90;;;;;;5032970;28;20045;-66
2022/05/24 04:25:34;;;;;;;10.80;3.80;;;16.30;99.90;;;;;;5031760;28;20090;-65
2022/05/24 04:28:01;;;;;;;7.53;3.30;;;16.30;99.90;;;;;;5036970;28;20064;-66
2022/05/24 04:30:29;;;;;;;6.13;3.30;;;16.30;99.90;;;;;;5018630;28;20395;-66
2022/05/24 04:32:57;;;;;;;7.32;3.67;;;16.30;99.90;;;;;;5034948;28;20073;-66
2022/05/24 04:35:25;;;;;;;7.03;3.55;;;16.40;99.90;;;;;;5043185;28;20091;-66
2022/05/24 04:37:52;;;;;;;6.60;3.40;;;16.50;99.90;;;;;;5046527;28;20530;-66
2022/05/24 04:42:18;;;;;;;6.25;3.50;;;16.50;99.90;;;;;;5043909;28;20060;-66
2022/05/24 04:43:08;;;;;;;5.80;3.40;;;16.50;99.90;;;;;;5041075;28;20505;-65
2022/05/24 04:45:35;;;;;;;5.30;3.65;;;16.60;99.90;;;;;;5029673;28;20099;-67
2022/05/24 04:48:05;;;;;;;6.65;3.65;;;16.70;99.90;;;;;;5040385;28;20106;-66
2022/05/24 04:50:34;;;;;;;8.40;4.05;;;16.90;99.90;;;;;;5037209;28;20415;-67
2022/05/24 04:53:01;;;;;;;7.10;3.60;;;16.90;99.90;;;;;;5032258;28;20119;-66
2022/05/24 04:55:28;;;;;;;7.95;3.40;;;16.90;99.90;;;;;;5036440;28;20636;-66
2022/05/24 04:57:56;;;;;;;7.18;4.10;;;17.00;99.90;;;;;;5035688;28;20052;-66
2022/05/24 05:00:26;;;;;;;6.82;3.28;;;17.00;99.90;;;;;;5021729;28;20573;-66
2022/05/24 05:02:53;;;;;;;4.95;2.92;;;17.10;99.90;;;;;;5028601;28;20135;-66
2022/05/24 05:05:20;;;;;;;5.22;3.28;;;17.00;99.90;;;;;;5028721;28;20140;-66
2022/05/24 05:07:52;;;;;;;5.85;3.08;;;16.90;99.90;;;;;;5022191;28;20492;-66
2022/05/24 05:10:20;;;;;;;7.63;3.92;;;17.00;99.90;;;;;;5029733;28;20140;-66
2022/05/24 05:12:47;;;;;;;5.55;3.35;;;16.90;99.90;;;;;;5028386;28;20584;-66
2022/05/24 05:15:15;;;;;;;9.85;6.80;;;16.80;99.90;;;;;;5027141;28;20045;-66
2022/05/24 05:17:43;;;;;;;6.28;3.60;;;16.80;99.90;;;;;;5028417;28;20063;-66
2022/05/24 05:20:11;;;;;;;5.82;3.70;;;16.80;99.90;;;;;;5036398;28;20079;-66
2022/05/24 05:22:38;;;;;;;8.95;4.20;;;16.70;99.90;;;;;;5032352;28;20512;-66
2022/05/24 05:25:07;;;;;;;6.28;3.70;;;16.70;99.90;;;;;;5025451;28;20045;-66
2022/05/24 05:27:35;;;;;;;4.72;3.13;;;16.70;99.90;;;;;;5026214;28;20045;-67
2022/05/24 05:32:50;;;;;;;6.13;3.13;;;16.80;99.90;;;;;;5034023;28;20453;-66
2022/05/24 05:35:18;;;;;;;6.60;3.40;;;16.90;99.90;;;;;;5014992;28;20041;-67
2022/05/24 05:37:45;;;;;;;6.55;3.35;;;16.90;99.90;;;;;;5040840;28;20121;-67
2022/05/24 05:40:14;;;;;;;6.00;3.42;;;16.90;99.90;;;;;;5033699;28;20050;-67
2022/05/24 05:42:42;;;;;;;5.70;3.40;;;16.90;99.90;;;;;;5039029;28;20139;-66
2022/05/24 05:45:11;;;;;;;5.22;3.00;;;17.00;99.90;;;;;;5031165;28;20083;-67
2022/05/24 05:47:39;;;;;;;6.85;3.13;;;17.00;99.90;;;;;;5035496;28;20049;-66
2022/05/24 05:50:07;;;;;;;6.53;3.22;;;17.10;99.90;;;;;;5035393;28;20128;-67
2022/05/24 05:52:34;;;;;;;6.00;3.50;;;17.10;99.90;;;;;;5034307;28;20503;-67
2022/05/24 05:55:02;;;;;;;5.70;3.45;;;17.10;99.90;;;;;;5036626;28;20048;-67
2022/05/24 05:57:29;;;;;;;5.70;3.00;;;17.20;99.90;;;;;;5039430;28;20075;-67
2022/05/24 05:59:56;;;;;;;5.15;3.05;;;17.30;99.90;;;;;;5034574;28;20128;-67
2022/05/24 06:02:24;;;;;;;7.07;4.13;;;17.40;99.90;;;;;;5027624;28;20438;-68
2022/05/24 06:04:51;;;;;;;6.95;3.40;;;17.40;99.90;;;;;;5028440;28;20049;-66
2022/05/24 06:07:20;;;;;;;4.80;3.20;;;17.50;99.90;;;;;;5005076;28;20519;-67
2022/05/24 06:09:52;;;;;;;8.00;3.13;;;17.40;99.90;;;;;;5028130;28;20038;-67
2022/05/24 06:12:19;;;;;;;6.13;3.40;;;17.30;99.90;;;;;;5027390;28;20508;-67
2022/05/24 06:14:47;;;;;;;6.20;3.55;;;17.20;99.90;;;;;;5019326;28;20087;-67
2022/05/24 06:17:26;;;;;;;10.40;3.97;;;17.20;99.90;;;;;;5025476;28;20126;-68
2022/05/24 06:19:53;;;;;;;8.48;5.03;;;17.20;99.90;;;;;;5027920;28;20072;-68
2022/05/24 06:22:21;;;;;;;5.40;3.30;;;17.10;99.90;;;;;;5027144;28;20101;-67
2022/05/24 06:24:48;;;;;;;5.53;3.30;;;17.10;99.90;;;;;;5030494;28;20488;-67
2022/05/24 06:27:21;;;;;;;4.90;3.28;;;17.00;99.90;;;;;;5027793;28;20512;-67
2022/05/24 06:29:49;;;;;;;5.05;3.10;;;17.10;99.90;;;;;;5030273;28;20412;-68
2022/05/24 06:32:16;;;;;;;6.07;3.70;;;17.20;99.90;;;;;;5027345;28;20104;-68
2022/05/24 06:34:48;;;;;;;8.40;3.92;;;17.20;99.90;;;;;;5026656;28;20099;-67
2022/05/24 06:37:17;;;;;;;7.43;3.75;;;17.20;99.90;;;;;;5028170;28;20045;-68
2022/05/24 06:39:48;;;;;;;9.18;3.25;;;17.10;99.90;;;;;;5021766;28;20066;-67
2022/05/24 06:42:15;;;;;;;7.28;3.95;;;17.20;99.90;;;;;;5030217;28;20129;-68
2022/05/24 06:44:43;;;;;;;8.80;4.55;;;17.20;99.90;;;;;;5027436;28;20049;-67
2022/05/24 06:47:11;;;;;;;5.95;3.60;;;17.30;99.90;;;;;;5030360;28;20103;-68
2022/05/24 06:49:38;;;;;;;6.35;3.50;;;17.30;99.90;;;;;;5034760;28;20559;-68
2022/05/24 06:52:06;;;;;;;7.68;3.88;;;17.40;99.90;;;;;;5030226;28;20867;-67
2022/05/24 06:54:33;;;;;;;4.78;3.70;;;17.50;99.90;;;;;;5028125;28;20049;-68
2022/05/24 06:57:01;;;;;;;5.85;3.65;;;17.40;99.90;;;;;;5030230;28;20041;-67
2022/05/24 07:02:25;;;;;;;4.95;3.28;;;17.70;99.90;;;;;;5031197;28;20054;-68
2022/05/24 07:05:10;;;;;;;5.53;3.72;;;17.60;99.90;;;;;;5025535;28;20044;-68
2022/05/24 07:07:38;;;;;;;10.82;3.88;;;17.50;99.90;;;;;;5029878;28;20575;-67
2022/05/24 07:10:08;;;;;;;9.23;3.80;;;17.30;99.90;;;;;;5034661;28;20088;-67
2022/05/24 07:12:36;;;;;;;7.00;4.07;;;17.20;99.90;;;;;;5030600;28;20422;-67
2022/05/24 07:15:05;;;;;;;8.32;4.15;;;17.20;99.90;;;;;;5030781;28;20087;-67
2022/05/24 07:17:32;;;;;;;6.55;4.15;;;17.30;99.90;;;;;;5031149;28;20041;-68
2022/05/24 07:19:59;;;;;;;7.53;4.40;;;17.40;99.90;;;;;;5030828;28;20124;-69
2022/05/24 07:22:26;;;;;;;7.25;4.53;;;17.20;99.90;;;;;;5029946;28;20103;-68
2022/05/24 07:24:55;;;;;;;6.07;4.22;;;17.10;99.90;;;;;;5029799;28;20073;-67
2022/05/24 07:27:23;;;;;;;6.65;4.07;;;17.10;99.90;;;;;;5031188;28;20473;-66
2022/05/24 07:29:50;;;;;;;7.93;4.40;;;17.10;99.90;;;;;;5033730;28;20053;-66
2022/05/24 07:32:18;;;;;;;6.10;4.20;;;17.20;99.90;;;;;;5034000;28;20144;-67
2022/05/24 07:34:45;;;;;;;5.88;3.72;;;17.20;99.90;;;;;;5041451;28;20563;-66
2022/05/24 07:37:16;;;;;;;7.05;5.05;;;17.20;99.90;;;;;;5038875;28;20049;-67
2022/05/24 07:39:44;;;;;;;5.95;4.13;;;17.30;99.90;;;;;;5028427;28;20584;-66
2022/05/24 07:47:45;;;;;;;6.95;4.50;;;17.30;99.90;;;;;;5040595;28;20518;-67
2022/05/24 07:50:12;;;;;;;5.78;4.05;;;17.30;99.90;;;;;;5041517;28;20112;-66
2022/05/24 07:52:40;;;;;;;6.05;4.32;;;17.50;99.90;;;;;;5037851;28;20053;-67
2022/05/24 07:55:07;;;;;;;8.48;4.57;;;17.70;99.90;;;;;;5034492;28;20107;-68
2022/05/24 07:57:36;;;;;;;7.15;4.50;;;17.90;99.90;;;;;;5018752;28;20440;-67
2022/05/24 08:00:06;;;;;;;7.05;3.70;;;18.10;99.90;;;;;;5033001;28;20385;-67
2022/05/24 08:02:38;;;;;;;7.75;3.95;;;18.20;99.90;;;;;;5031043;28;20044;-68
2022/05/24 08:05:07;;;;;;;6.25;3.92;;;18.30;99.90;;;;;;5029282;28;20053;-68
2022/05/24 08:07:34;;;;;;;5.15;3.40;;;18.70;99.90;;;;;;5029902;28;20056;-67
2022/05/24 08:10:02;;;;;;;5.35;3.47;;;18.70;99.90;;;;;;5030428;28;20466;-67
2022/05/24 08:12:29;;;;;;;9.65;3.67;;;18.70;99.90;;;;;;5029146;28;20132;-68
2022/05/24 08:14:58;;;;;;;6.30;2.95;;;18.60;99.90;;;;;;5034141;28;20046;-67
2022/05/24 08:17:25;;;;;;;5.05;3.28;;;18.90;99.90;;;;;;5035250;28;20496;-68
2022/05/24 08:19:53;;;;;;;7.60;3.50;;;18.90;99.90;;;;;;5042842;28;20045;-67
2022/05/24 08:22:20;;;;;;;5.20;3.47;;;18.90;99.90;;;;;;5040936;28;20393;-69
2022/05/24 08:24:47;;;;;;;5.65;3.28;;;19.10;99.90;;;;;;5035038;28;20197;-68
2022/05/24 08:27:16;;;;;;;4.28;3.03;;;19.50;99.90;;;;;;5039587;28;20057;-67
2022/05/24 08:29:44;;;;;;;5.45;3.60;;;19.60;99.90;;;;;;5033924;28;20075;-68
2022/05/24 08:32:12;;;;;;;6.60;3.40;;;19.50;99.90;;;;;;5038565;28;20045;-67
2022/05/24 08:34:39;;;;;;;6.57;3.47;;;19.70;99.90;;;;;;5034787;28;20045;-68
2022/05/24 08:37:07;;;;;;;6.82;3.70;;;19.70;99.90;;;;;;5041927;28;20117;-67
2022/05/24 08:39:34;;;;;;;6.18;3.35;;;19.60;99.90;;;;;;5032175;28;20042;-67
2022/05/24 08:42:19;;;;;;;5.43;3.50;;;19.80;99.90;;;;;;5034461;28;20142;-68
2022/05/24 08:50:32;;;;;;;11.55;3.97;;;20.20;99.90;;;;;;5037378;28;20454;-66
2022/05/24 08:53:13;;;;;;;5.47;2.70;;;20.40;99.90;;;;;;5031831;28;20055;-67
2022/05/24 08:55:42;;;;;;;7.65;3.47;;;20.20;99.90;;;;;;5017120;28;20133;-67
2022/05/24 08:58:17;;;;;;;4.85;2.88;;;20.10;99.90;;;;;;5029287;28;20046;-67
2022/05/24 09:00:45;;;;;;;5.18;2.80;;;19.70;99.90;;;;;;5030046;28;20046;-69
2022/05/24 09:03:12;;;;;;;5.60;2.97;;;19.50;99.90;;;;;;5030915;28;20480;-70
2022/05/24 09:05:47;;;;;;;4.25;2.70;;;19.30;99.90;;;;;;5030649;28;20049;-70
2022/05/24 09:08:28;;;;;;;4.90;2.60;;;19.20;99.90;;;;;;5033958;28;20191;-70
2022/05/24 09:11:31;;;;;;;6.53;2.97;;;19.00;99.90;;;;;;5031533;28;20099;-71
2022/05/24 09:14:01;;;;;;;6.07;3.00;;;18.80;99.90;;;;;;5023835;28;20067;-69
2022/05/24 09:16:54;;;;;;;4.95;2.97;;;18.80;99.90;;;;;;5030900;28;20095;-70
2022/05/24 09:19:26;;;;;;;7.00;3.10;;;18.60;99.90;;;;;;5029592;28;20079;-69
2022/05/24 09:21:54;;;;;;;6.28;3.30;;;18.60;99.90;;;;;;5030070;28;20486;-70
2022/05/24 09:24:46;;;;;;;7.75;3.40;;;18.60;99.90;;;;;;5040999;28;20750;-69
2022/05/24 09:27:13;;;;;;;4.75;2.22;;;18.30;99.90;;;;;;5041799;28;20083;-71
2022/05/24 09:29:58;;;;;;;1.83;0.90;;;17.30;99.90;;;;;;5036550;28;20493;-69
2022/05/24 09:32:40;;;;;;;4.88;1.15;;;16.10;99.90;;;;;;5036140;28;20076;-67
2022/05/24 09:35:16;;;;;;;3.40;0.98;;;15.70;99.90;;;;;;5031689;28;20048;-69
2022/05/24 09:38:17;;;;;;;3.20;0.93;;;15.60;99.90;;;;;;5040425;28;20071;-68
2022/05/24 09:40:46;;;;;;;1.77;0.80;;;15.60;99.90;;;;;;5028176;28;20167;-68
2022/05/24 09:43:26;;;;;;;4.40;1.30;;;15.60;99.90;;;;;;5033376;28;20042;-69
2022/05/24 09:45:58;;;;;;;4.75;0.95;;;15.90;99.90;;;;;;5035792;28;20049;-69
2022/05/24 09:48:31;;;;;;;2.78;0.93;;;16.10;99.90;;;;;;5033364;28;20045;-69
2022/05/24 09:51:00;;;;;;;6.32;1.40;;;16.50;99.90;;;;;;5037536;28;20053;-70
2022/05/24 09:53:30;;;;;;;5.32;1.20;;;16.80;99.90;;;;;;5026512;28;20081;-68
2022/05/24 09:56:01;;;;;;;3.15;0.85;;;16.70;99.90;;;;;;5032904;28;20419;-69
2022/05/24 09:58:49;;;;;;;3.10;0.85;;;17.00;99.90;;;;;;5033170;28;20424;-69
2022/05/24 10:01:36;;;;;;;2.45;0.90;;;17.40;99.90;;;;;;5019134;28;20041;-68
2022/05/24 10:04:17;;;;;;;2.45;0.90;;;17.40;99.90;;;;;;5029471;28;20468;-70
2022/05/24 10:06:55;;;;;;;2.70;1.15;;;17.20;99.90;;;;;;5029430;28;20156;-68
2022/05/24 10:09:49;;;;;;;4.93;1.98;;;17.30;99.90;;;;;;5028582;28;20475;-69
2022/05/24 10:12:17;;;;;;;5.03;1.60;;;17.50;99.90;;;;;;5036532;28;20072;-68
2022/05/24 10:14:55;;;;;;;5.82;1.27;;;17.70;99.90;;;;;;5026554;28;20136;-69
2022/05/24 10:17:34;;;;;;;4.07;1.23;;;17.80;99.90;;;;;;5042326;28;20034;-69
2022/05/24 10:20:16;;;;;;;5.82;1.35;;;17.90;99.90;;;;;;5038825;28;20046;-70
2022/05/24 10:22:47;;;;;;;;;;;18.00;99.90;;;;;;5029994;28;20045;-69
2022/05/24 10:25:31;;;;;;;5.15;1.27;;;18.20;99.90;;;;;;5034972;28;20247;-70
2022/05/24 10:27:59;;;;;;;5.20;1.00;;;18.10;99.90;;;;;;5033165;28;20501;-70
2022/05/24 10:30:51;;;;;;;3.85;0.90;;;18.00;99.90;;;;;;5030986;28;20061;-71
2022/05/24 10:39:34;;;;;;;2.90;0.73;;;17.90;99.90;;;;;;5028917;28;20464;-71
2022/05/24 10:42:09;;;;;;;2.83;0.85;;;18.00;99.90;;;;;;5028344;28;20041;-72
2022/05/24 10:45:00;;;;;;;2.17;0.70;;;18.00;99.90;;;;;;5039618;28;20144;-70
2022/05/24 10:47:52;;;;;;;1.15;0.70;;;17.60;99.90;;;;;;5017747;28;20131;-69
2022/05/24 10:50:27;;;;;;;2.40;0.80;;;17.40;99.90;;;;;;5025845;28;20048;-71
2022/05/24 10:53:01;;;;;;;2.28;0.88;;;17.50;99.90;;;;;;5032314;28;20057;-72
2022/05/24 10:55:36;;;;;;;2.60;1.08;;;17.40;99.90;;;;;;5029837;28;20041;-67
2022/05/24 10:58:09;;;;;;;3.65;1.08;;;17.60;99.90;;;;;;5046911;28;20100;-67
2022/05/24 11:00:56;;;;;;;3.58;1.30;;;17.50;99.90;;;;;;5043955;28;20120;-67
2022/05/24 11:03:31;;;;;;;1.33;0.73;;;17.70;99.90;;;;;;5020851;28;20045;-68
2022/05/24 11:06:03;;;;;;;1.60;0.95;;;18.20;99.90;;;;;;5021691;28;20041;-67
2022/05/24 11:08:51;;;;;;;3.80;0.82;;;18.40;99.90;;;;;;5024709;28;20072;-67
2022/05/24 11:11:57;;;;;;;2.08;0.90;;;18.30;99.90;;;;;;5026936;28;20049;-67
2022/05/24 11:14:42;;;;;;;3.47;0.90;;;18.60;99.90;;;;;;5028297;28;20119;-69
2022/05/24 11:17:11;;;;;;;3.05;0.90;;;18.90;99.90;;;;;;5027309;28;20049;-67
2022/05/24 11:19:44;;;;;;;1.90;0.93;;;19.40;99.90;;;;;;5026802;28;20052;-67
2022/05/24 11:22:35;;;;;;;3.88;0.90;;;19.40;99.90;;;;;;5027141;28;20556;-67
2022/05/24 11:25:25;;;;;;;1.90;1.00;;;19.00;99.90;;;;;;5015359;28;20045;-67
2022/05/24 11:28:00;;;;;;;2.47;1.10;;;18.60;99.90;;;;;;5027902;28;20057;-67
2022/05/24 11:30:38;;;;;;;7.28;1.60;;;18.80;99.90;;;;;;5028492;28;20535;-68
2022/05/24 11:33:11;;;;;;;1.92;0.88;;;18.60;99.90;;;;;;5027149;28;20046;-68
2022/05/24 11:35:45;;;;;;;4.43;1.30;;;19.00;99.90;;;;;;5028935;28;20064;-67
2022/05/24 11:38:22;;;;;;;4.20;1.00;;;19.10;99.90;;;;;;5028466;28;20477;-68
2022/05/24 11:41:07;;;;;;;4.38;0.75;;;19.50;99.90;;;;;;5018090;28;20057;-67
2022/05/24 11:43:43;;;;;;;1.65;0.88;;;19.70;99.90;;;;;;5029336;28;20069;-69
2022/05/24 11:46:41;;;;;;;2.53;1.00;;;20.00;99.90;;;;;;5033086;28;20077;-68
2022/05/24 11:49:29;;;;;;;2.85;0.90;;;20.00;99.90;;;;;;5037415;28;20045;-68
2022/05/24 11:52:01;;;;;;;2.28;0.80;;;19.90;99.90;;;;;;5034130;28;20053;-67
2022/05/24 11:54:28;;;;;;;3.53;0.90;;;20.10;99.90;;;;;;5030756;28;20049;-68
2022/05/24 11:57:01;;;;;;;2.83;0.80;;;20.30;99.90;;;;;;5030694;28;20208;-67
2022/05/24 11:59:55;;;;;;;2.88;0.70;;;20.60;99.90;;;;;;5030649;28;20045;-67
2022/05/24 12:02:24;;;;;;;2.25;0.73;;;20.60;99.90;;;;;;5016672;28;20148;-67
2022/05/24 12:07:56;;;;;;;1.98;0.85;;;21.10;99.90;;;;;;5025855;28;20226;-68
2022/05/24 12:10:24;;;;;;;2.20;0.88;;;20.80;99.90;;;;;;5021555;28;20073;-68
2022/05/24 12:13:03;;;;;;;1.52;0.75;;;21.00;99.90;;;;;;5025724;28;20052;-68
2022/05/24 12:15:30;;;;;;;2.50;0.85;;;21.70;99.90;;;;;;5023136;28;20135;-67
2022/05/24 12:17:57;;;;;;;3.15;0.90;;;21.40;99.90;;;;;;5028496;28;20041;-68
2022/05/24 12:20:33;;;;;;;1.08;0.80;;;21.50;99.90;;;;;;5024187;28;20045;-68
2022/05/24 12:23:07;;;;;;;2.22;0.73;;;21.70;99.90;;;;;;5009388;28;20060;-67
2022/05/24 12:26:01;;;;;;;2.95;1.08;;;21.30;99.90;;;;;;5031319;28;20075;-67
2022/05/24 12:28:34;;;;;;;2.78;0.70;;;21.80;99.90;;;;;;5019949;28;20505;-69
2022/05/24 12:31:17;;;;;;;3.63;1.17;;;22.20;99.90;;;;;;5029868;28;20041;-68
2022/05/24 12:34:14;;;;;;;2.58;0.70;;;22.60;99.90;;;;;;5022633;28;20090;-68
2022/05/24 12:36:45;;;;;;;1.50;0.70;;;23.00;99.90;;;;;;5029054;28;20051;-68
2022/05/24 12:39:35;;;;;;;2.33;0.70;;;23.00;99.90;;;;;;5031452;28;20084;-68
2022/05/24 12:42:12;;;;;;;1.35;0.75;;;23.10;99.90;;;;;;5025718;28;20033;-67
2022/05/24 12:44:48;;;;;;;2.40;0.93;;;23.20;99.90;;;;;;5031792;28;20115;-68
2022/05/24 12:47:21;;;;;;;1.08;0.60;;;23.60;99.90;;;;;;5022699;28;20092;-67
2022/05/24 12:49:49;;;;;;;3.20;1.73;;;23.80;99.90;;;;;;5033281;28;20064;-67
2022/05/24 12:52:31;;;;;;;1.50;0.60;;;24.60;99.90;;;;;;5030051;28;20743;-68
2022/05/24 12:55:03;;;;;;;1.98;0.70;;;24.50;99.90;;;;;;5035982;28;20497;-67
2022/05/24 12:57:47;;;;;;;4.00;0.95;;;24.50;99.90;;;;;;5017801;28;20049;-68
2022/05/24 13:00:22;;;;;;;1.77;0.73;;;23.60;99.90;;;;;;5030931;28;20045;-67
2022/05/24 13:02:52;;;;;;;2.55;0.90;;;23.90;99.90;;;;;;5023497;28;20034;-66
2022/05/24 13:05:38;;;;;;;2.25;0.90;;;23.50;99.90;;;;;;5021075;28;20049;-68
2022/05/24 13:08:06;;;;;;;3.55;0.90;;;22.90;99.90;;;;;;5022158;28;20048;-68
2022/05/24 13:10:37;;;;;;;1.70;0.70;;;22.50;99.90;;;;;;5017824;28;20528;-68
2022/05/24 13:13:10;;;;;;;2.72;0.80;;;22.10;99.90;;;;;;5028492;28;20516;-66
2022/05/24 13:15:45;;;;;;;1.27;0.73;;;22.10;99.90;;;;;;5031807;28;20040;-68
2022/05/24 13:18:31;;;;;;;1.73;0.73;;;21.50;99.90;;;;;;5029011;28;20120;-68
2022/05/24 13:21:02;;;;;;;1.27;0.75;;;21.80;99.90;;;;;;5032156;28;20127;-66
2022/05/24 13:23:34;;;;;;;4.55;0.98;;;21.60;99.90;;;;;;5032738;28;20124;-67
2022/05/24 13:26:01;;;;;;;2.28;0.80;;;21.60;99.90;;;;;;5032891;28;20473;-67
2022/05/24 13:28:35;;;;;;;1.20;0.73;;;21.50;99.90;;;;;;5032667;28;20053;-67
2022/05/24 13:33:55;;;;;;;3.35;0.95;;;21.60;99.90;;;;;;5037377;28;20056;-68
2022/05/24 13:36:39;;;;;;;2.80;0.65;;;22.00;99.90;;;;;;5029680;28;20479;-69
2022/05/24 13:39:10;;;;;;;1.40;0.65;;;22.60;99.90;;;;;;5035223;28;20492;-68
2022/05/24 13:41:41;;;;;;;4.00;0.93;;;23.80;99.90;;;;;;5045642;28;20048;-68
2022/05/24 13:44:35;;;;;;;3.70;0.95;;;23.30;99.90;;;;;;5044073;28;20106;-67
2022/05/24 13:47:05;;;;;;;6.82;0.82;;;22.70;99.90;;;;;;5048190;28;20051;-69
2022/05/24 13:49:43;;;;;;;1.13;0.60;;;21.70;99.90;;;;;;5033690;28;20128;-68
2022/05/24 13:52:27;;;;;;;2.40;0.70;;;20.90;99.90;;;;;;5046646;28;20048;-66
2022/05/24 13:55:12;;;;;;;1.95;0.90;;;20.70;99.90;;;;;;5035526;28;20041;-68
2022/05/24 13:58:23;;;;;;;2.47;0.82;;;20.20;99.90;;;;;;5025489;28;20476;-67